Time;durP1;ratioP1;P1;durP2;ratioP2;P2;SDS_P1;SDS_P2;PMS_P1;PMS_P2;Temp;Humidity;BMP_temperature;BMP_pressure;BME280_temperature;BME280_humidity;BME280_pressure;Samples;Min_cycle;Max_cycle;Signal;HPM_P1;HPM_P2
2022/12/31 08:31:46;;;;;;;;;4.25;3.00;;;;;15.70;100.00;100965.56;5864528;23;49832;-71
2022/12/31 08:34:29;;;;;;;;;4.00;3.75;;;;;15.77;100.00;100971.78;4947017;28;49716;-71
2022/12/31 08:37:17;;;;;;;;;4.00;4.00;;;;;15.96;100.00;101005.38;4952549;28;49824;-71
2022/12/31 08:39:45;;;;;;;;;3.00;3.00;;;;;16.10;100.00;101038.06;4953202;28;49954;-71
2022/12/31 08:42:34;;;;;;;;;4.00;4.00;;;;;15.84;100.00;100981.53;4952454;28;50499;-71
2022/12/31 08:45:27;;;;;;;;;3.00;3.00;;;;;16.02;100.00;101030.13;4949012;28;49780;-71
2022/12/31 08:48:21;;;;;;;;;4.00;4.00;;;;;16.11;100.00;101054.81;4952912;28;49781;-70
2022/12/31 08:50:47;;;;;;;;;1.50;1.50;;;;;16.13;100.00;101053.97;4953374;28;49758;-71
2022/12/31 08:53:12;;;;;;;;;3.00;3.00;;;;;15.81;100.00;100992.06;4952674;28;49835;-71
2022/12/31 08:55:41;;;;;;;;;2.00;2.00;;;;;16.13;100.00;101067.22;4952504;28;49925;-71
2022/12/31 08:58:33;;;;;;;;;5.50;4.25;;;;;16.13;100.00;101058.38;4952319;28;49974;-70
2022/12/31 09:00:59;;;;;;;;;2.00;2.00;;;;;16.03;100.00;101034.53;4951150;28;51081;-71
2022/12/31 09:03:42;;;;;;;;;4.25;3.00;;;;;16.12;100.00;101057.50;4952683;28;50113;-71
2022/12/31 09:06:19;;;;;;;;;3.00;2.00;;;;;16.14;100.00;101076.94;4952843;28;49808;-72
2022/12/31 09:09:25;;;;;;;;;4.75;4.75;;;;;16.13;100.00;101064.56;4951392;28;49874;-72
2022/12/31 09:12:03;;;;;;;;;3.00;1.75;;;;;16.18;100.00;101070.75;4953780;28;50053;-71
2022/12/31 09:14:42;;;;;;;;;4.25;4.25;;;;;16.08;100.00;101050.41;4952650;28;50598;-72
2022/12/31 09:17:17;;;;;;;;;4.00;3.75;;;;;16.22;100.00;101069.88;4950729;28;50063;-71
2022/12/31 09:19:42;;;;;;;;;3.50;3.00;;;;;16.08;100.00;101036.28;4952700;28;50039;-71
2022/12/31 09:22:09;;;;;;;;;4.25;4.00;;;;;16.33;100.00;101069.03;4951532;28;49901;-72
2022/12/31 09:24:35;;;;;;;;;3.00;3.00;;;;;16.16;100.00;101037.19;4952632;28;52198;-71
2022/12/31 09:27:12;;;;;;;;;7.50;4.00;;;;;15.69;100.00;100971.75;4951050;28;49662;-71
2022/12/31 09:29:58;;;;;;;;;6.50;2.75;;;;;16.21;100.00;101043.38;4951460;28;49772;-73
2022/12/31 09:32:34;;;;;;;;;5.25;4.00;;;;;16.46;100.00;101074.34;4949081;28;49930;-73
2022/12/31 09:35:17;;;;;;;;;4.50;3.25;;;;;15.20;100.00;100852.50;4946257;28;51060;-73
2022/12/31 09:37:49;;;;;;;;;5.00;5.00;;;;;16.51;100.00;101063.78;4951714;28;49762;-74
2022/12/31 09:40:29;;;;;;;;;2.00;2.00;;;;;16.46;100.00;101044.31;4951681;28;49834;-73
2022/12/31 09:43:12;;;;;;;;;4.25;4.25;;;;;16.52;100.00;101052.28;4950984;28;50707;-74
2022/12/31 09:46:05;;;;;;;;;2.75;2.75;;;;;16.53;100.00;101056.69;4950931;28;53163;-75
2022/12/31 09:48:43;;;;;;;;;3.50;2.25;;;;;16.45;100.00;101061.09;4951114;28;49968;-71
2022/12/31 09:51:30;;;;;;;;;3.00;2.00;;;;;15.70;100.00;100966.47;4950883;28;49763;-75
2022/12/31 09:54:10;;;;;;;;;2.00;2.00;;;;;16.53;100.00;101092.03;4951851;28;50094;-76
2022/12/31 09:56:46;;;;;;;;;3.75;3.75;;;;;16.08;100.00;101034.53;4950606;28;52705;-77
2022/12/31 09:59:34;;;;;;;;;2.50;2.50;;;;;16.53;100.00;101077.91;4952204;28;49830;-82
2022/12/31 10:02:40;;;;;;;;;5.75;2.50;;;;;16.43;100.00;101044.31;4952056;28;49933;-75
2022/12/31 10:05:08;;;;;;;;;6.00;3.50;;;;;16.64;100.00;101077.91;4951403;28;50069;-78
2022/12/31 10:08:03;;;;;;;;;3.75;3.75;;;;;15.73;100.00;100939.13;4950162;28;50503;-76
2022/12/31 10:10:28;;;;;;;;;3.75;3.00;;;;;16.68;100.00;101084.97;4952995;28;49966;-77
2022/12/31 10:13:03;;;;;;;;;3.75;3.00;;;;;16.71;100.00;101077.06;4959072;28;49861;-68
2022/12/31 10:15:56;;;;;;;;;2.75;2.75;;;;;16.44;100.00;101033.72;4955758;28;49809;-77
2022/12/31 10:18:37;;;;;;;;;3.25;3.25;;;;;16.76;100.00;101054.97;4966215;28;49426;-75
2022/12/31 10:21:08;;;;;;;;;2.50;2.50;;;;;16.81;100.00;101061.16;4955482;28;49806;-73
2022/12/31 10:24:06;;;;;;;;;2.00;2.00;;;;;16.84;100.00;101047.91;4965524;28;49366;-73
2022/12/31 10:26:52;;;;;;;;;0.75;0.00;;;;;16.98;100.00;101063.78;4953145;28;49782;-72
2022/12/31 10:29:39;;;;;;;;;5.25;4.00;;;;;17.04;100.00;101058.50;4946078;28;50936;-74
2022/12/31 10:32:18;;;;;;;;;5.00;3.50;;;;;17.05;100.00;101054.06;4948885;28;49846;-74
2022/12/31 10:34:54;;;;;;;;;3.25;3.25;;;;;16.87;100.00;101017.84;4950838;28;49998;-72
2022/12/31 10:37:28;;;;;;;;;3.00;2.00;;;;;17.12;100.00;101047.88;4949512;28;49867;-73
2022/12/31 10:40:15;;;;;;;;;4.50;4.00;;;;;17.15;100.00;101046.09;4949902;28;50772;-73
2022/12/31 10:43:07;;;;;;;;;3.25;3.25;;;;;17.19;100.00;101041.69;4948515;28;49876;-72
2022/12/31 10:45:44;;;;;;;;;4.25;3.00;;;;;16.80;100.00;100966.59;4948381;28;49962;-72
2022/12/31 10:48:27;;;;;;;;;3.50;3.50;;;;;17.22;100.00;101036.38;4949850;28;49954;-73
2022/12/31 10:51:14;;;;;;;;;4.00;3.00;;;;;17.20;100.00;101032.84;4949571;28;50491;-73
2022/12/31 10:53:57;;;;;;;;;5.00;5.00;;;;;17.24;100.00;101029.28;4943814;28;49900;-72
2022/12/31 10:56:28;;;;;;;;;5.00;3.25;;;;;17.31;100.00;101023.06;4950355;28;49751;-74
2022/12/31 10:59:23;;;;;;;;;3.00;3.00;;;;;17.36;100.00;101018.63;4950584;28;49752;-74
2022/12/31 11:02:24;;;;;;;;;2.00;2.00;;;;;17.11;100.00;100962.13;4949843;28;50006;-75
2022/12/31 11:05:26;;;;;;;;;5.00;4.00;;;;;17.61;100.00;101027.41;4950961;28;49762;-73
2022/12/31 11:08:15;;;;;;;;;3.75;3.00;;;;;17.67;100.00;101023.84;4951300;28;49717;-73
2022/12/31 11:10:52;;;;;;;;;3.50;3.00;;;;;17.72;100.00;101019.41;4949775;28;49777;-74
2022/12/31 11:13:53;;;;;;;;;6.50;3.00;;;;;17.77;100.00;101016.75;4948484;28;50796;-73
2022/12/31 11:16:38;;;;;;;;;5.00;5.00;;;;;17.82;100.00;101014.94;4948276;28;49943;-73
2022/12/31 11:19:41;;;;;;;;;4.25;3.75;;;;;17.81;100.00;101011.41;4949581;28;49890;-79
2022/12/31 11:22:31;;;;;;;;;3.75;2.00;;;;;17.72;100.00;100991.09;4949905;28;50096;-75
2022/12/31 11:25:15;;;;;;;;;3.50;3.50;;;;;17.55;100.00;100941.59;4948761;28;49891;-75
2022/12/31 11:28:02;;;;;;;;;2.75;2.75;;;;;17.42;100.00;100916.88;4952914;28;49945;-77
2022/12/31 11:30:30;;;;;;;;;2.50;2.50;;;;;17.97;100.00;100993.63;4938328;28;50153;-75
2022/12/31 11:33:05;;;;;;;;;4.00;3.00;;;;;17.99;100.00;100998.03;4949921;28;49756;-74
2022/12/31 11:35:40;;;;;;;;;3.25;3.25;;;;;18.00;100.00;101013.09;4948331;28;50830;-75
2022/12/31 11:38:26;;;;;;;;;2.75;2.75;;;;;17.41;100.00;100915.13;4953450;28;49799;-76
2022/12/31 11:41:13;;;;;;;;;5.50;5.50;;;;;18.00;100.00;100993.59;4950299;28;49801;-77
2022/12/31 11:43:51;;;;;;;;;4.50;3.75;;;;;16.88;100.00;100812.78;4950922;28;49892;-75
2022/12/31 11:46:47;;;;;;;;;5.50;4.00;;;;;18.08;100.00;100988.25;4943809;28;49675;-75
2022/12/31 11:49:43;;;;;;;;;4.25;3.00;;;;;18.15;100.00;100985.56;4952721;28;49618;-75
2022/12/31 11:52:27;;;;;;;;;3.75;3.75;;;;;18.17;100.00;100999.72;4958860;28;49725;-72
2022/12/31 11:54:58;;;;;;;;;3.00;2.00;;;;;18.25;100.00;100995.22;4954562;28;49830;-74
2022/12/31 11:57:26;;;;;;;;;3.00;3.00;;;;;18.06;100.00;100958.16;4958503;28;51994;-75
2022/12/31 12:00:12;;;;;;;;;1.75;0.75;;;;;18.10;100.00;100966.09;4955064;28;49928;-76
2022/12/31 12:02:44;;;;;;;;;2.25;2.25;;;;;18.01;100.00;100952.88;4955424;28;49753;-75
2022/12/31 12:05:15;;;;;;;;;3.00;3.00;;;;;17.39;100.00;100834.66;4956714;28;49985;-78
2022/12/31 12:07:41;;;;;;;;;3.25;2.75;;;;;17.92;100.00;100910.44;4947727;28;50924;-76
2022/12/31 12:10:29;;;;;;;;;2.50;2.50;;;;;18.29;100.00;100965.06;4953270;28;49863;-76
2022/12/31 12:12:56;;;;;;;;;5.00;4.00;;;;;18.36;100.00;100978.31;4945220;28;49986;-78
2022/12/31 12:15:36;;;;;;;;;2.25;2.25;;;;;17.73;100.00;100851.25;4955025;28;49846;-77
2022/12/31 12:18:22;;;;;;;;;3.25;3.25;;;;;18.13;100.00;100939.50;4956905;28;50453;-77
2022/12/31 12:20:47;;;;;;;;;3.25;3.00;;;;;17.08;100.00;100759.63;4957692;28;49681;-76
2022/12/31 12:23:20;;;;;;;;;4.00;4.00;;;;;17.01;100.00;100742.03;4952905;28;49734;-78
2022/12/31 12:25:46;;;;;;;;;5.00;5.00;;;;;18.13;100.00;100920.88;4954235;28;49822;-78
2022/12/31 12:28:26;;;;;;;;;2.00;2.00;;;;;17.09;100.00;100756.13;4955846;28;50545;-78
2022/12/31 12:31:01;;;;;;;;;3.00;2.50;;;;;18.24;100.00;100942.97;4956048;28;49693;-70
2022/12/31 12:33:29;;;;;;;;;4.25;4.00;;;;;18.12;100.00;100915.59;4953974;28;49936;-79
2022/12/31 12:36:13;;;;;;;;;5.00;4.50;;;;;17.52;100.00;100807.13;4952061;28;49799;-79
2022/12/31 12:38:39;;;;;;;;;4.50;3.50;;;;;17.98;100.00;100868.78;4952980;28;50528;-78
2022/12/31 12:41:09;;;;;;;;;3.00;3.00;;;;;18.21;100.00;100905.78;4953579;28;50416;-78
2022/12/31 12:43:36;;;;;;;;;4.00;4.00;;;;;17.58;100.00;100819.50;4952973;28;49839;-77
2022/12/31 12:46:17;;;;;;;;;3.25;3.25;;;;;17.41;100.00;100791.28;4953297;28;49911;-77
2022/12/31 12:48:46;;;;;;;;;5.50;3.75;;;;;17.63;100.00;100826.50;4952842;28;49865;-76
2022/12/31 12:51:24;;;;;;;;;3.25;3.25;;;;;17.50;100.00;100798.31;4953718;28;49804;-76
2022/12/31 12:53:59;;;;;;;;;3.00;3.00;;;;;18.13;100.00;100906.72;4953868;28;50127;-79
2022/12/31 12:56:41;;;;;;;;;3.00;3.00;;;;;17.39;100.00;100776.28;4953670;28;49667;-76
2022/12/31 12:59:06;;;;;;;;;4.00;4.00;;;;;18.14;100.00;100906.72;4953456;28;49883;-77
2022/12/31 13:01:37;;;;;;;;;4.00;3.75;;;;;18.12;100.00;100905.84;4953098;28;49912;-78
2022/12/31 13:04:19;;;;;;;;;4.75;4.75;;;;;17.81;100.00;100857.41;4952321;28;49806;-78
2022/12/31 13:06:51;;;;;;;;;4.25;4.25;;;;;18.07;100.00;100893.50;4949707;28;50022;-78
2022/12/31 13:09:22;;;;;;;;;3.00;3.00;;;;;18.05;100.00;100895.28;4949421;28;52119;-77
2022/12/31 13:11:52;;;;;;;;;5.00;3.75;;;;;17.80;100.00;100854.75;4950512;28;49924;-77
2022/12/31 13:14:23;;;;;;;;;4.00;4.00;;;;;18.00;100.00;100897.97;4954398;28;50062;-83
2022/12/31 13:17:09;;;;;;;;;2.00;2.00;;;;;16.70;100.00;100689.19;4957425;28;49902;-79
2022/12/31 13:19:51;;;;;;;;;3.25;3.00;;;;;17.88;100.00;100901.63;4952422;28;51217;-83
2022/12/31 13:22:38;;;;;;;;;3.75;3.75;;;;;17.12;100.00;100822.41;4952698;28;49877;-78
2022/12/31 13:25:24;;;;;;;;;7.50;4.50;;;;;17.83;100.00;100889.25;4951030;28;50098;-80
2022/12/31 13:27:52;;;;;;;;;2.75;2.75;;;;;17.53;100.00;100850.47;4950438;28;49788;-73
2022/12/31 13:30:22;;;;;;;;;2.75;2.25;;;;;17.85;100.00;100893.66;4952069;28;50389;-80
2022/12/31 13:33:02;;;;;;;;;6.75;5.75;;;;;17.82;100.00;100906.94;4952942;28;49843;-76
2022/12/31 13:35:41;;;;;;;;;6.25;6.25;;;;;17.37;100.00;100842.63;4956470;28;49914;-75
2022/12/31 13:38:28;;;;;;;;;4.25;2.00;;;;;17.77;100.00;100913.22;4953450;28;50033;-71
2022/12/31 13:40:56;;;;;;;;;3.25;2.25;;;;;17.74;100.00;100930.00;4955908;28;50470;-71
2022/12/31 13:43:34;;;;;;;;;5.25;3.75;;;;;17.22;100.00;100847.13;4955828;28;49707;-77
2022/12/31 13:46:12;;;;;;;;;3.00;3.00;;;;;17.20;100.00;100831.22;4951571;28;49900;-78
2022/12/31 13:49:25;;;;;;;;;3.25;3.25;;;;;17.39;100.00;100874.47;4953429;28;50031;-78
2022/12/31 13:52:31;;;;;;;;;3.00;2.50;;;;;17.13;100.00;100829.47;4941693;28;49697;-72
2022/12/31 13:55:21;;;;;;;;;5.25;5.25;;;;;17.20;100.00;100848.91;4959092;28;49716;-72
2022/12/31 13:57:52;;;;;;;;;4.25;3.75;;;;;17.20;100.00;100855.09;4953600;28;51281;-79
2022/12/31 14:00:24;;;;;;;;;4.50;3.00;;;;;17.29;100.00;100891.31;4948384;28;49742;-79
2022/12/31 14:02:52;;;;;;;;;4.00;2.50;;;;;17.25;100.00;100879.81;4951341;28;50540;-80
2022/12/31 14:05:41;;;;;;;;;4.00;3.75;;;;;17.47;100.00;100912.47;4948914;28;50235;-77
2022/12/31 14:08:07;;;;;;;;;4.50;2.75;;;;;17.42;100.00;100904.50;4952470;28;49741;-78
2022/12/31 14:10:57;;;;;;;;;5.00;4.00;;;;;17.45;100.00;100907.13;4953348;28;49960;-78
2022/12/31 14:13:46;;;;;;;;;6.25;4.00;;;;;17.41;100.00;100913.34;4949375;28;52161;-76
2022/12/31 14:16:21;;;;;;;;;5.00;4.00;;;;;17.39;100.00;100907.19;4948789;28;49953;-74
2022/12/31 14:19:14;;;;;;;;;4.00;4.00;;;;;17.40;100.00;100908.06;4948259;28;50038;-73
2022/12/31 14:22:00;;;;;;;;;5.75;4.00;;;;;17.34;100.00;100916.91;4949266;28;51050;-71
2022/12/31 14:24:46;;;;;;;;;3.50;3.50;;;;;17.01;100.00;100848.09;4950330;28;50787;-75
2022/12/31 14:27:27;;;;;;;;;3.00;3.00;;;;;16.62;100.00;100796.97;4950580;28;50423;-74
2022/12/31 14:30:00;;;;;;;;;3.00;3.00;;;;;16.74;100.00;100810.19;4950382;28;49829;-75
2022/12/31 14:33:03;;;;;;;;;5.00;5.00;;;;;17.25;100.00;100894.84;4949299;28;49883;-74
2022/12/31 14:35:54;;;;;;;;;4.00;4.00;;;;;17.22;100.00;100890.44;4949305;28;50746;-75
2022/12/31 14:38:46;;;;;;;;;3.00;3.00;;;;;17.19;100.00;100885.16;4947374;28;49790;-75
2022/12/31 14:42:00;;;;;;;;;1.50;1.50;;;;;16.19;100.00;100729.94;4949324;28;49655;-77
2022/12/31 14:44:33;;;;;;;;;0.50;0.50;;;;;17.10;100.00;100871.94;4942390;28;49862;-78
2022/12/31 14:47:11;;;;;;;;;5.25;4.00;;;;;16.51;100.00;100785.50;4957990;28;50588;-76
2022/12/31 14:50:00;;;;;;;;;3.00;3.00;;;;;17.12;100.00;100886.06;4952779;28;49742;-79
2022/12/31 14:52:32;;;;;;;;;4.00;4.00;;;;;17.08;100.00;100890.53;4945490;28;49962;-75
2022/12/31 14:55:20;;;;;;;;;4.75;3.25;;;;;17.06;100.00;100884.31;4955343;28;49900;-76
2022/12/31 14:57:47;;;;;;;;;6.00;3.75;;;;;17.05;100.00;100893.16;4951013;28;50040;-79
2022/12/31 15:00:42;;;;;;;;;5.50;4.00;;;;;16.99;100.00;100887.00;4952404;28;49774;-74
2022/12/31 15:03:14;;;;;;;;;5.25;4.25;;;;;16.94;100.00;100887.00;4938996;28;50048;-73
2022/12/31 15:05:55;;;;;;;;;3.00;3.00;;;;;16.77;100.00;100880.88;4947814;28;49925;-77
2022/12/31 15:08:29;;;;;;;;;4.75;4.25;;;;;16.88;100.00;100901.16;4950576;28;51198;-79
2022/12/31 15:11:06;;;;;;;;;2.25;2.25;;;;;16.83;100.00;100905.59;4951256;28;49785;-79
2022/12/31 15:14:02;;;;;;;;;3.25;3.25;;;;;16.80;100.00;100912.69;4954908;28;49858;-76
2022/12/31 15:17:06;;;;;;;;;4.00;3.00;;;;;16.77;100.00;100902.97;4950268;28;50056;-76
2022/12/31 15:20:01;;;;;;;;;3.50;3.50;;;;;16.72;100.00;100912.72;4928552;28;50668;-76
2022/12/31 15:22:50;;;;;;;;;4.50;4.50;;;;;15.73;100.00;100746.81;4948540;28;49918;-80
2022/12/31 15:25:26;;;;;;;;;4.50;4.50;;;;;16.65;100.00;100910.03;4948076;28;49819;-76
2022/12/31 15:27:53;;;;;;;;;5.00;4.25;;;;;16.62;100.00;100925.94;4954012;28;49840;-75
2022/12/31 15:30:36;;;;;;;;;6.00;4.75;;;;;16.37;100.00;100904.75;4956111;28;49848;-79
2022/12/31 15:33:15;;;;;;;;;3.00;2.75;;;;;16.54;100.00;100907.41;4954247;28;50133;-75
2022/12/31 15:36:11;;;;;;;;;3.75;3.00;;;;;16.50;100.00;100910.91;4955789;28;49904;-81
2022/12/31 15:38:38;;;;;;;;;6.00;4.25;;;;;16.34;100.00;100883.56;4954335;28;49718;-79
2022/12/31 15:41:22;;;;;;;;;5.00;4.75;;;;;16.43;100.00;100914.47;4953501;28;50696;-78
2022/12/31 15:43:55;;;;;;;;;4.50;3.25;;;;;15.54;100.00;100773.22;4953667;28;50312;-80
2022/12/31 15:46:24;;;;;;;;;6.75;6.00;;;;;16.38;100.00;100940.97;4955681;28;49833;-79
2022/12/31 15:48:56;;;;;;;;;2.75;2.75;;;;;15.31;100.00;100766.13;4954588;28;49844;-79
2022/12/31 15:51:31;;;;;;;;;5.00;4.00;;;;;15.26;100.00;100722.06;4953416;28;49733;-79
2022/12/31 15:53:59;;;;;;;;;3.25;3.25;;;;;16.13;100.00;100928.63;4956271;28;49887;-76
2022/12/31 15:56:33;;;;;;;;;4.50;4.50;;;;;16.06;100.00;100897.72;4952376;28;49823;-81
2022/12/31 15:59:02;;;;;;;;;4.75;4.00;;;;;15.51;100.00;100800.56;4956217;28;49957;-80
2022/12/31 16:01:31;;;;;;;;;3.00;3.00;;;;;16.03;100.00;100912.72;4957309;28;49813;-79
2022/12/31 16:04:00;;;;;;;;;3.00;3.00;;;;;16.15;100.00;100925.06;4957410;28;49599;-76
2022/12/31 16:06:30;;;;;;;;;5.75;4.00;;;;;15.37;100.00;100791.72;4958057;28;49833;-80
2022/12/31 16:08:56;;;;;;;;;4.00;4.00;;;;;16.10;100.00;100910.94;4957534;28;49911;-80
2022/12/31 16:11:23;;;;;;;;;3.25;3.00;;;;;16.10;100.00;100929.47;4957548;28;50700;-77
2022/12/31 16:13:52;;;;;;;;;7.75;5.00;;;;;15.87;100.00;100902.09;4957247;28;50530;-79
2022/12/31 16:16:27;;;;;;;;;4.25;4.25;;;;;16.05;100.00;100925.06;4957038;28;49794;-76
2022/12/31 16:18:54;;;;;;;;;4.00;2.75;;;;;16.03;100.00;100928.59;4957991;28;49748;-79
2022/12/31 16:21:34;;;;;;;;;3.50;3.00;;;;;14.61;100.00;100705.19;4959522;28;49690;-79
2022/12/31 16:24:04;;;;;;;;;2.00;2.00;;;;;15.28;100.00;100816.41;4956007;28;49932;-76
2022/12/31 16:26:44;;;;;;;;;4.00;4.00;;;;;15.81;100.00;100897.66;4957322;28;49753;-77
2022/12/31 16:29:13;;;;;;;;;5.75;5.00;;;;;14.99;100.00;100781.94;4951259;28;49835;-77
2022/12/31 16:31:41;;;;;;;;;6.50;4.00;;;;;15.97;100.00;100923.28;4954809;28;49862;-80
2022/12/31 16:34:13;;;;;;;;;3.25;3.00;;;;;15.68;100.00;100882.66;4955810;28;49728;-79
2022/12/31 16:36:39;;;;;;;;;4.25;2.50;;;;;15.03;100.00;100793.41;4953214;28;49846;-79
2022/12/31 16:39:25;;;;;;;;;5.75;4.00;;;;;15.92;100.00;100938.31;4953451;28;49991;-79
2022/12/31 16:42:05;;;;;;;;;6.50;5.50;;;;;15.94;100.00;100933.88;4954202;28;50002;-78
2022/12/31 16:44:30;;;;;;;;;3.25;3.25;;;;;15.44;100.00;100855.25;4954981;28;49776;-73
2022/12/31 16:46:58;;;;;;;;;3.00;3.00;;;;;15.32;100.00;100839.31;4953606;28;49711;-77
2022/12/31 16:49:25;;;;;;;;;3.50;3.50;;;;;15.93;100.00;100945.34;4958382;28;49591;-83
2022/12/31 16:51:58;;;;;;;;;3.00;2.50;;;;;15.32;100.00;100851.66;4949418;28;51059;-75
2022/12/31 16:54:34;;;;;;;;;3.50;3.00;;;;;15.93;100.00;100939.19;4948746;28;49621;-76
2022/12/31 16:57:00;;;;;;;;;2.00;2.00;;;;;14.92;100.00;100777.50;4957725;28;49662;-76
2022/12/31 16:59:37;;;;;;;;;4.50;4.50;;;;;14.86;100.00;100769.53;4953616;28;50024;-81
2022/12/31 17:02:10;;;;;;;;;7.00;4.00;;;;;15.42;100.00;100894.00;4955969;28;51193;-74
2022/12/31 17:04:35;;;;;;;;;4.75;4.75;;;;;15.77;100.00;100921.50;4960408;28;50004;-76
2022/12/31 17:07:24;;;;;;;;;5.00;5.00;;;;;15.92;100.00;100954.19;4957996;28;49730;-75
2022/12/31 17:10:20;;;;;;;;;7.25;4.75;;;;;15.21;100.00;100829.59;4953919;28;50124;-79
2022/12/31 17:12:51;;;;;;;;;1.00;1.00;;;;;15.74;100.00;100915.31;4947858;28;50231;-79
2022/12/31 17:15:20;;;;;;;;;5.00;5.00;;;;;14.83;100.00;100773.06;4953907;28;49646;-83
2022/12/31 17:17:52;;;;;;;;;4.50;4.50;;;;;14.63;100.00;100742.16;4953571;28;50008;-77
2022/12/31 17:20:30;;;;;;;;;4.50;4.50;;;;;14.79;100.00;100768.66;4953666;28;49824;-74
2022/12/31 17:22:59;;;;;;;;;3.00;3.00;;;;;15.91;100.00;100947.09;4953357;28;49986;-79
2022/12/31 17:25:31;;;;;;;;;4.25;3.00;;;;;14.63;100.00;100739.53;4955162;28;49616;-81
2022/12/31 17:27:59;;;;;;;;;6.00;5.00;;;;;15.65;100.00;100933.81;4951374;28;49962;-74
2022/12/31 17:30:34;;;;;;;;;4.00;4.00;;;;;15.92;100.00;100958.56;4957443;28;49581;-81
2022/12/31 17:33:26;;;;;;;;;4.75;4.00;;;;;15.91;100.00;100946.22;4952886;28;50513;-77
2022/12/31 17:36:11;;;;;;;;;5.00;5.00;;;;;14.73;99.10;100736.03;4952636;28;49786;-76
2022/12/31 17:38:36;;;;;;;;;4.50;4.50;;;;;14.69;99.18;100752.78;4951821;28;49712;-77
2022/12/31 17:41:04;;;;;;;;;3.00;3.00;;;;;15.94;98.72;100938.31;4953305;28;49616;-75
2022/12/31 17:43:32;;;;;;;;;3.25;3.25;;;;;15.96;99.02;100949.78;4948093;28;49832;-79
2022/12/31 17:45:58;;;;;;;;;5.50;5.50;;;;;14.76;97.12;100731.63;4952555;28;49907;-77
2022/12/31 17:48:24;;;;;;;;;2.25;2.25;;;;;14.88;96.63;100768.69;4953168;28;49879;-76
2022/12/31 17:50:52;;;;;;;;;6.25;5.00;;;;;15.13;95.63;100779.31;4955273;28;49984;-77
2022/12/31 17:53:18;;;;;;;;;5.00;3.25;;;;;15.36;96.85;100832.28;4948069;28;50679;-77
2022/12/31 17:55:46;;;;;;;;;3.75;3.75;;;;;15.43;96.04;100842.88;4953573;28;49631;-76
2022/12/31 17:58:31;;;;;;;;;4.25;4.00;;;;;15.82;96.92;100925.91;4953149;28;50191;-74
2022/12/31 18:00:58;;;;;;;;;6.00;4.75;;;;;15.98;96.93;100946.22;4952731;28;49794;-75
2022/12/31 18:03:23;;;;;;;;;4.75;4.75;;;;;15.97;97.45;100928.59;4952447;28;50472;-73
2022/12/31 18:05:49;;;;;;;;;3.00;3.00;;;;;15.97;96.30;100935.66;4958000;28;49889;-73
2022/12/31 18:08:14;;;;;;;;;6.75;6.75;;;;;15.90;96.21;100937.38;4952761;28;49932;-74
2022/12/31 18:10:41;;;;;;;;;4.50;4.50;;;;;15.79;96.79;100933.84;4953507;28;49741;-73
2022/12/31 18:13:14;;;;;;;;;6.25;5.00;;;;;15.90;97.40;100953.28;4952604;28;50427;-72
2022/12/31 18:15:39;;;;;;;;;3.00;3.00;;;;;15.74;96.30;100933.84;4952122;28;49810;-73
2022/12/31 18:18:18;;;;;;;;;5.25;4.50;;;;;15.84;98.01;100961.22;4952546;28;49792;-74
2022/12/31 18:20:43;;;;;;;;;5.00;5.00;;;;;15.68;96.46;100939.13;4952188;28;49639;-74
2022/12/31 18:23:17;;;;;;;;;4.25;4.25;;;;;15.64;97.30;100947.94;4951964;28;50074;-74
2022/12/31 18:25:43;;;;;;;;;4.75;4.75;;;;;15.61;96.38;100954.97;4951223;28;49761;-74
2022/12/31 18:28:08;;;;;;;;;5.00;5.00;;;;;15.09;95.74;100852.47;4952983;28;49672;-74
2022/12/31 18:30:34;;;;;;;;;6.00;3.75;;;;;15.19;95.99;100874.56;4952219;28;49799;-74
2022/12/31 18:32:59;;;;;;;;;4.25;4.25;;;;;15.76;95.30;100968.25;4951189;28;49990;-74
2022/12/31 18:35:25;;;;;;;;;4.75;4.25;;;;;14.44;95.31;100764.94;4951150;28;49658;-74
2022/12/31 18:37:50;;;;;;;;;8.25;7.00;;;;;14.63;94.83;100795.88;4951156;28;50254;-74
2022/12/31 18:40:15;;;;;;;;;5.00;4.50;;;;;15.77;93.85;101004.44;4950712;28;50031;-74
2022/12/31 18:42:42;;;;;;;;;6.25;6.25;;;;;14.93;94.04;100860.31;4949802;28;50471;-74
2022/12/31 18:45:19;;;;;;;;;7.00;5.00;;;;;15.73;94.35;100984.13;4947140;28;49849;-75
2022/12/31 18:47:44;;;;;;;;;5.75;5.25;;;;;15.56;93.28;100967.28;4949648;28;51119;-75
2022/12/31 18:50:15;;;;;;;;;8.50;7.50;;;;;15.74;93.87;100973.56;4949554;28;50048;-75
2022/12/31 18:52:41;;;;;;;;;5.25;5.25;;;;;15.74;93.85;100980.59;4951132;28;50809;-74
2022/12/31 18:55:19;;;;;;;;;7.50;6.25;;;;;15.70;94.24;101002.63;4950843;28;49823;-74
2022/12/31 18:57:44;;;;;;;;;5.50;5.50;;;;;15.12;93.35;100885.97;4949988;28;49865;-77
2022/12/31 19:00:11;;;;;;;;;6.00;6.00;;;;;15.50;94.39;100968.13;4950696;28;49773;-83
2022/12/31 19:02:36;;;;;;;;;6.75;6.50;;;;;14.27;93.83;100776.28;4947540;28;49815;-78
2022/12/31 19:05:01;;;;;;;;;6.00;5.00;;;;;15.38;93.38;100936.34;4948868;28;61189;-76
2022/12/31 19:07:26;;;;;;;;;8.50;7.25;;;;;14.80;93.15;100862.91;4951004;28;50077;-74
2022/12/31 19:09:52;;;;;;;;;5.75;5.25;;;;;14.65;91.45;100841.69;4951965;28;49803;-75
2022/12/31 19:12:17;;;;;;;;;8.00;6.00;;;;;15.31;92.31;100958.34;4949916;28;59480;-76
2022/12/31 19:14:42;;;;;;;;;5.25;4.50;;;;;15.70;92.05;101005.28;4950192;28;49564;-77
2022/12/31 19:17:08;;;;;;;;;5.75;4.50;;;;;14.70;91.04;100866.38;4950564;28;50134;-76
2022/12/31 19:19:33;;;;;;;;;9.50;9.50;;;;;15.41;91.55;100963.69;4950429;28;49828;-75
2022/12/31 19:21:58;;;;;;;;;4.25;4.25;;;;;15.71;90.15;101012.34;4949644;28;52512;-72
2022/12/31 19:24:25;;;;;;;;;6.50;6.00;;;;;15.67;89.83;101011.44;4950743;28;49730;-73
2022/12/31 19:26:52;;;;;;;;;12.00;9.50;;;;;15.51;91.61;100999.00;4953533;28;49739;-76
2022/12/31 19:29:22;;;;;;;;;8.25;7.00;;;;;15.44;90.52;100983.97;4948487;28;49771;-73
2022/12/31 19:31:48;;;;;;;;;3.25;3.00;;;;;14.79;89.53;100899.91;4951819;28;50609;-75
2022/12/31 19:34:13;;;;;;;;;9.25;7.00;;;;;15.65;89.15;101014.97;4950511;28;49871;-73
2022/12/31 19:36:40;;;;;;;;;9.00;6.00;;;;;15.67;88.09;101029.09;4951613;28;50249;-74
2022/12/31 19:39:09;;;;;;;;;5.00;4.00;;;;;15.66;88.09;101028.22;4954831;28;50124;-73
2022/12/31 19:41:34;;;;;;;;;9.25;8.00;;;;;15.65;87.96;101017.63;4959596;28;50170;-75
2022/12/31 19:44:01;;;;;;;;;8.00;7.00;;;;;15.60;87.08;101022.88;4959156;28;49862;-74
2022/12/31 19:46:26;;;;;;;;;5.25;5.00;;;;;14.24;85.86;100797.41;4955501;28;50052;-71
2022/12/31 19:48:52;;;;;;;;;7.50;5.50;;;;;15.50;86.70;100999.88;4955072;28;49645;-75
2022/12/31 19:51:19;;;;;;;;;4.25;4.25;;;;;14.31;86.31;100806.25;4965882;28;49744;-74
2022/12/31 19:53:47;;;;;;;;;8.00;5.00;;;;;14.36;86.42;100828.28;4957271;28;49648;-70
2022/12/31 19:56:16;;;;;;;;;4.75;4.50;;;;;15.65;85.24;101025.56;4948717;28;49725;-72
2022/12/31 19:58:41;;;;;;;;;7.75;7.75;;;;;14.36;86.92;100825.63;4948191;28;49830;-75
2022/12/31 20:01:08;;;;;;;;;6.25;5.50;;;;;15.63;86.89;101024.66;4951212;28;52401;-71
2022/12/31 20:03:34;;;;;;;;;6.00;6.00;;;;;15.02;87.13;100934.41;4951563;28;49774;-71
2022/12/31 20:06:05;;;;;;;;;5.75;5.00;;;;;14.85;86.04;100921.97;4954163;28;49856;-72
2022/12/31 20:08:30;;;;;;;;;7.75;5.50;;;;;15.05;87.38;100948.50;4950283;28;49918;-70
2022/12/31 20:10:57;;;;;;;;;8.25;5.00;;;;;15.53;86.14;101018.41;4953830;28;49863;-73
2022/12/31 20:13:24;;;;;;;;;4.50;4.50;;;;;15.05;86.54;100940.56;4951666;28;49823;-71
2022/12/31 20:15:50;;;;;;;;;5.00;5.00;;;;;15.32;86.75;100995.38;4953099;28;50007;-73
2022/12/31 20:18:19;;;;;;;;;6.00;3.00;;;;;15.53;87.50;101047.50;4958774;28;49738;-78
2022/12/31 20:20:46;;;;;;;;;4.00;4.00;;;;;15.42;87.73;101025.41;4982259;28;51699;-66
2022/12/31 20:23:12;;;;;;;;;5.00;4.00;;;;;15.47;86.95;101023.69;4957976;28;49809;-75
2022/12/31 20:25:38;;;;;;;;;5.00;5.00;;;;;15.45;86.40;101023.69;4959442;28;49755;-76
2022/12/31 20:28:03;;;;;;;;;6.00;3.75;;;;;15.38;86.07;101045.69;4952299;28;49696;-76
2022/12/31 20:30:29;;;;;;;;;5.00;5.00;;;;;14.84;84.53;100920.19;4955293;28;51516;-80